Latest Weather Observations for Wadeye (Port Keats)

IDD60801

Issued at 6:35 am CST Wednesday 26 November 2014 (issued every 30 minutes, with the page automatically refreshed every 10 minutes)

About weather observations | Map of weather stations | Latest weather observations for NT | Other Formats
Station Details ID: 014948 Name: PORT KEATS AIRPORT Lat: -14.25 Lon: 129.53 Height: 28.0 m
Data from the previous 72 hours. | See also: Recent months at Wadeye (Port Keats)
Date/Time
CST
Temp
°C
App
Temp
°C
Dew
Point
Rel
Hum
%
Delta-T
°C
Wind Press
QNH
hPa
Press
MSL
hPa
Rain
since 9 am
mm
Dir
 
Spd
km/h
Gust
km/h
Spd
kts
Gust
kts
26/06:30am 26.0 27.8 20.3 71 3.7 SSE 11 15 6 8 1007.9 1007.7 0.4
26/06:00am 26.3 27.8 20.6 71 3.8 SE 13 17 7 9 1007.5 1007.3 0.4
26/05:30am 26.0 28.8 20.8 73 3.4 SE 7 9 4 5 1006.9 1006.7 0.4
26/05:00am 25.3 29.0 20.8 76 3.0 SW 2 6 1 3 1006.3 1006.0 0.4
26/04:30am 26.0 28.9 20.6 72 3.6 SE 6 7 3 4 1006.2 1005.9 0.4
26/04:00am 25.7 28.5 20.5 73 3.4 ENE 6 9 3 5 1005.9 1005.6 0.4
26/03:30am 25.7 28.0 20.7 74 3.3 NE 9 13 5 7 1005.9 1005.6 0.4
26/03:00am 26.0 28.3 19.9 69 4.0 ENE 7 9 4 5 1006.3 1006.0 0.4
26/02:30am 26.4 28.6 19.5 66 4.5 ENE 7 11 4 6 1006.6 1006.3 0.4
26/02:00am 26.6 27.9 19.2 64 4.8 ESE 11 15 6 8 1007.2 1007.0 0.4
26/01:30am 26.8 27.8 20.2 67 4.3 SE 15 20 8 11 1007.6 1007.4 0.4
26/01:00am 26.5 28.6 21.0 72 3.6 E 11 15 6 8 1008.2 1008.0 0.4
26/12:30am 26.6 28.8 21.1 72 3.6 ESE 11 15 6 8 1008.2 1008.0 0.4
26/12:00am 26.8 28.4 21.5 72 3.5 SE 15 22 8 12 1008.7 1008.5 0.4
 
Date/Time
CST
Temp
°C
App
Temp
°C
Dew
Point
Rel
Hum
%
Delta-T
°C
Wind Press
QNH
hPa
Press
MSL
hPa
Rain
since 9 am
mm
Dir
 
Spd
km/h
Gust
km/h
Spd
kts
Gust
kts
25/11:30pm 26.2 27.2 21.8 77 2.9 SE 19 26 10 14 1008.3 1008.1 0.4
25/11:04pm 26.4 25.7 21.8 76 3.1 SE 28 37 15 20 1008.9 1008.7 0.4
25/11:00pm 26.3 29.2 21.7 76 3.1 ESE 9 17 5 9 1008.5 1008.3 0.4
25/10:30pm 26.2 29.3 22.1 78 2.8 E 9 13 5 7 1008.3 1008.1 0.4
25/10:00pm 26.4 29.7 22.5 79 2.6 ENE 9 11 5 6 1007.9 1007.7 0.4
25/09:30pm 26.7 30.5 22.8 79 2.6 ENE 7 7 4 4 1007.1 1006.9 0.4
25/09:00pm 27.1 31.1 22.7 77 3.0 ENE 6 7 3 4 1006.8 1006.5 0.4
25/08:30pm 27.4 31.1 22.6 75 3.3 NNE 7 11 4 6 1006.8 1006.5 0.4
25/08:00pm 27.8 31.3 22.1 71 3.8 N 7 11 4 6 1006.7 1006.4 0.4
25/07:30pm 28.1 31.3 21.6 68 4.4 NE 7 11 4 6 1006.7 1006.4 0.4
25/07:00pm 28.6 31.6 20.9 63 5.1 NNE 6 9 3 5 1006.2 1005.9 0.4
25/06:30pm 29.1 32.0 21.1 62 5.3 ENE 7 9 4 5 1005.7 1005.4 0.4
25/06:00pm 29.4 31.3 20.5 58 5.9 N 11 15 6 8 1005.2 1004.9 0.4
25/05:30pm 29.5 31.8 20.6 58 5.9 N 9 13 5 7 1005.1 1004.8 0.4
25/05:00pm 29.1 31.8 21.3 62 5.2 N 9 13 5 7 1005.3 1005.0 0.4
25/04:30pm 28.4 32.3 21.9 68 4.4 E 4 7 2 4 1005.8 1005.5 0.4
25/04:00pm 26.7 29.8 22.8 79 2.6 NNE 11 13 6 7 1006.3 1006.0 0.4
25/03:30pm 26.2 29.5 21.4 75 3.2 E 6 9 3 5 1006.9 1006.7 0.2
25/03:00pm 26.0 29.5 20.3 71 3.7 ESE 2 7 1 4 1007.0 1006.8 0.2
25/02:30pm 24.8 26.2 20.3 76 2.9 S 13 24 7 13 1007.8 1007.6 0.2
25/02:02pm 25.0 23.8 20.9 78 2.7 SE 28 46 15 25 1009.1 1008.9 0.0
25/02:00pm 25.1 23.3 21.2 79 2.6 SE 32 46 17 25 1009.3 1009.1 0.0
25/01:42pm 26.3 25.0 21.3 74 3.3 ESE 30 48 16 26 1010.0 1009.8 0.0
25/01:39pm 26.7 26.1 21.9 75 3.2 ESE 28 35 15 19 1010.0 1009.8 0.0
25/01:30pm 26.2 29.0 22.3 79 2.6 E 11 17 6 9 1009.0 1008.8 0.0
25/01:00pm 25.4 27.0 22.1 82 2.2 ESE 17 24 9 13 1009.6 1009.4 0.0
25/12:30pm 25.7 25.2 21.4 77 2.9 N 26 39 14 21 1009.1 1008.9 0.0
25/12:00pm 28.7 29.2 21.2 64 5.0 N 20 30 11 16 1008.6 1008.4 0.0
25/11:30am 32.8 34.6 22.6 55 7.0 SW 17 26 9 14 1008.1 1007.9 0.0
25/11:00am 32.9 35.8 23.2 56 6.7 SW 13 20 7 11 1008.9 1008.7 0.0
25/10:30am 32.0 35.8 24.1 63 5.5 WSW 11 19 6 10 1009.4 1009.2 0.0
25/10:00am 31.8 35.9 23.9 63 5.5 SW 9 13 5 7 1009.4 1009.2 0.0
25/09:30am 31.2 35.2 23.8 64 5.1 SSW 9 19 5 10 1009.4 1009.2 0.0
25/09:00am 30.8 35.2 23.5 65 5.1 ENE 6 9 3 5 1009.3 1009.1 0.0
25/08:30am 29.3 33.1 22.8 68 4.4 ESE 7 9 4 5 1009.2 1009.0 0.0
25/08:00am 27.7 31.4 22.2 72 3.7 E 6 7 3 4 1009.0 1008.8 0.0
25/07:30am 27.2 30.5 21.9 73 3.6 SE 7 9 4 5 1008.4 1008.2 0.0
25/07:00am 26.6 29.5 21.8 75 3.2 ESE 9 11 5 6 1008.5 1008.3 0.0
25/06:30am 26.3 29.7 21.7 76 3.1 NE 6 11 3 6 1008.4 1008.2 0.0
25/06:00am 26.2 29.3 22.1 78 2.8 E 9 11 5 6 1007.6 1007.4 0.0
25/05:30am 26.2 30.4 21.8 77 2.9 E 2 6 1 3 1007.4 1007.2 0.0
25/05:00am 26.1 29.7 22.0 78 2.7 E 6 7 3 4 1007.5 1007.3 0.0
25/04:30am 26.1 29.7 22.0 78 2.8 ENE 6 9 3 5 1007.5 1007.3 0.0
25/04:00am 26.4 30.1 22.3 78 2.8 NE 6 9 3 5 1007.0 1006.8 0.0
25/03:30am 26.2 30.2 22.1 78 2.8 N 4 7 2 4 1006.9 1006.7 0.0
25/03:00am 26.1 30.0 22.6 81 2.4 ENE 6 9 3 5 1007.3 1007.1 0.0
25/02:30am 26.1 29.3 22.4 80 2.5 NE 9 11 5 6 1007.5 1007.3 0.0
25/02:00am 26.5 31.7 22.8 80 2.5 CALM 0 6 0 3 1008.0 1007.8 0.0
25/01:30am 26.5 30.6 23.0 81 2.4 SSE 6 9 3 5 1008.3 1008.1 0.0
25/01:00am 26.0 29.9 22.5 81 2.4 SW 6 7 3 4 1008.2 1008.0 0.0
25/12:30am 26.0 30.1 22.3 80 2.5 SW 4 7 2 4 1008.6 1008.4 0.0
25/12:00am 26.5 31.0 22.3 78 2.8 SSW 2 6 1 3 1009.2 1009.0 0.0
 
Date/Time
CST
Temp
°C
App
Temp
°C
Dew
Point
Rel
Hum
%
Delta-T
°C
Wind Press
QNH
hPa
Press
MSL
hPa
Rain
since 9 am
mm
Dir
 
Spd
km/h
Gust
km/h
Spd
kts
Gust
kts
24/11:30pm 26.9 31.4 22.3 76 3.1 NNE 2 7 1 4 1009.2 1009.0 0.0
24/11:00pm 27.2 30.7 22.2 74 3.4 E 7 9 4 5 1009.4 1009.2 0.0
24/10:30pm 27.0 31.1 22.2 75 3.2 SSW 4 9 2 5 1009.3 1009.1 0.0
24/10:00pm 27.6 31.6 22.1 72 3.7 SE 4 7 2 4 1009.5 1009.3 0.0
24/09:30pm 28.0 31.1 22.2 70 3.9 ENE 9 11 5 6 1009.5 1009.3 0.0
24/09:00pm 28.2 33.3 22.7 72 3.7 CALM 0 0 0 0 1009.0 1008.8 0.0
24/08:30pm 28.6 31.9 22.6 70 4.1 NE 9 11 5 6 1008.4 1008.2 0.0
24/08:00pm 29.1 32.4 22.6 68 4.4 E 9 13 5 7 1008.0 1007.8 0.0
24/07:30pm 29.6 32.9 22.6 66 4.8 N 9 13 5 7 1007.2 1007.0 0.0
24/07:00pm 28.9 32.8 21.9 66 4.7 N 4 7 2 4 1007.0 1006.8 0.0
24/06:30pm 28.5 31.7 21.3 65 4.8 E 6 7 3 4 1007.4 1007.2 0.0
24/06:00pm 28.0 31.2 21.3 67 4.5 S 6 9 3 5 1007.7 1007.5 0.0
24/05:30pm 30.5 30.9 21.0 57 6.4 S 20 30 11 16 1008.0 1007.8 0.0
24/05:00pm 29.5 30.0 20.9 60 5.7 E 19 24 10 13 1007.8 1007.6 0.0
24/04:30pm 31.9 33.9 22.9 59 6.2 N 17 20 9 11 1007.3 1007.1 0.0
24/04:00pm 32.2 34.4 22.6 57 6.6 NNW 15 22 8 12 1007.5 1007.3 0.0
24/03:30pm 32.7 34.7 22.2 54 7.2 NW 15 22 8 12 1007.0 1006.8 0.0
24/03:00pm 33.6 35.9 22.7 53 7.5 NW 15 26 8 14 1006.3 1006.0 0.0
24/02:30pm 31.3 31.7 20.6 53 7.1 N 19 24 10 13 1006.9 1006.7 0.0
24/02:00pm 30.7 31.2 20.0 52 7.1 NE 17 26 9 14 1008.4 1008.2 0.0
24/01:30pm 33.4 35.3 22.8 53 7.3 WNW 17 28 9 15 1008.3 1008.1 0.0
24/01:00pm 32.9 34.8 22.7 55 7.0 WNW 17 28 9 15 1008.1 1007.9 0.0
24/12:30pm 33.3 35.7 23.0 54 7.1 WNW 15 22 8 12 1009.1 1008.9 0.0
24/12:00pm 33.2 35.5 23.5 56 6.7 W 17 22 9 12 1009.9 1009.7 0.0
24/11:30am 33.6 36.9 24.5 59 6.4 W 15 20 8 11 1010.2 1010.0 0.0
24/11:00am 32.6 35.9 23.8 59 6.1 W 13 24 7 13 1010.3 1010.1 0.0
24/10:30am 33.3 37.0 24.5 60 6.2 WNW 13 17 7 9 1010.7 1010.5 0.0
24/10:00am 32.0 35.6 23.8 62 5.7 W 11 19 6 10 1011.0 1010.8 0.0
24/09:30am 31.7 35.6 24.3 65 5.2 WNW 11 17 6 9 1011.0 1010.8 0.0
24/09:00am 31.1 34.8 24.5 68 4.6 WNW 13 20 7 11 1010.8 1010.6 0.0
24/08:30am 31.4 34.8 24.0 65 5.2 WNW 13 19 7 10 1010.7 1010.5 0.0
24/08:00am 30.7 35.1 24.4 69 4.4 W 9 20 5 11 1010.6 1010.4 0.0
24/07:30am 29.9 34.5 24.8 74 3.6 W 9 13 5 7 1010.4 1010.2 0.0
24/07:00am 29.2 34.5 25.0 78 2.9 W 6 7 3 4 1010.1 1009.9 0.0
24/06:30am 28.8 34.0 24.8 79 2.8 W 6 7 3 4 1009.7 1009.5 0.0
24/06:00am 28.7 34.0 24.9 80 2.7 W 6 7 3 4 1009.3 1009.1 0.0
24/05:30am 28.6 33.9 25.0 81 2.5 W 6 9 3 5 1009.1 1008.9 0.0
24/05:00am 28.6 33.9 25.2 82 2.4 W 7 9 4 5 1008.9 1008.7 0.0
24/04:30am 28.8 35.0 25.2 81 2.5 W 2 6 1 3 1008.9 1008.7 0.0
24/04:00am 28.7 34.2 25.3 82 2.4 WNW 6 9 3 5 1008.7 1008.5 0.0
24/03:30am 28.5 34.9 24.9 81 2.5 CALM 0 0 0 0 1008.6 1008.4 0.0
24/03:00am 28.4 33.6 24.8 81 2.5 W 6 9 3 5 1008.5 1008.3 0.0
24/02:30am 28.7 34.6 24.7 79 2.8 W 2 7 1 4 1008.4 1008.2 0.0
24/02:00am 28.8 33.9 24.6 78 2.9 W 6 7 3 4 1008.7 1008.5 0.0
24/01:30am 29.2 34.2 24.5 76 3.3 W 6 7 3 4 1008.9 1008.7 0.0
24/01:00am 29.5 34.5 24.8 76 3.3 WNW 7 9 4 5 1009.2 1009.0 0.0
24/12:30am 29.3 34.4 24.6 76 3.3 W 6 7 3 4 1009.5 1009.3 0.0
24/12:00am 29.4 34.4 24.5 75 3.4 W 6 9 3 5 1009.7 1009.5 0.0
 
Date/Time
CST
Temp
°C
App
Temp
°C
Dew
Point
Rel
Hum
%
Delta-T
°C
Wind Press
QNH
hPa
Press
MSL
hPa
Rain
since 9 am
mm
Dir
 
Spd
km/h
Gust
km/h
Spd
kts
Gust
kts
23/11:30pm 29.6 34.4 24.5 74 3.6 WNW 7 9 4 5 1009.8 1009.6 0.0
23/11:00pm 29.5 35.6 24.4 74 3.6 CALM 0 2 0 1 1009.7 1009.5 0.0
23/10:30pm 29.9 34.6 24.3 72 3.9 WNW 7 9 4 5 1009.7 1009.5 0.0
23/10:00pm 30.2 34.7 24.6 72 3.9 NW 9 13 5 7 1009.3 1009.1 0.0
23/09:30pm 29.9 34.9 24.5 73 3.8 W 6 7 3 4 1009.0 1008.8 0.0
23/09:00pm 30.0 34.8 24.4 72 3.9 WNW 7 11 4 6 1008.6 1008.4 0.0
23/08:30pm 29.9 34.5 24.1 71 4.0 W 7 9 4 5 1008.4 1008.2 0.0
23/08:00pm 30.3 34.4 24.0 69 4.4 NW 9 15 5 8 1008.0 1007.8 0.0
23/07:30pm 30.5 34.6 23.9 68 4.6 WNW 9 17 5 9 1007.8 1007.6 0.0
23/07:00pm 30.6 33.9 23.8 67 4.7 WNW 13 19 7 10 1007.3 1007.1 0.0
23/06:30pm 31.5 34.4 23.1 61 5.8 WNW 13 20 7 11 1007.3 1007.1 0.0
23/06:00pm 33.0 35.5 22.4 53 7.3 W 13 20 7 11 1007.3 1007.1 0.0
23/05:30pm 33.3 36.8 22.1 52 7.7 W 7 11 4 6 1007.3 1007.1 0.0
23/05:00pm 33.7 36.4 22.8 53 7.5 WNW 13 20 7 11 1007.1 1006.9 0.0
23/04:30pm 33.8 35.8 22.2 50 8.0 WNW 15 26 8 14 1006.8 1006.5 0.0
23/04:00pm 34.3 36.0 22.4 50 8.2 WNW 17 26 9 14 1007.1 1006.9 0.0
23/03:30pm 34.6 35.7 22.0 48 8.6 NW 19 28 10 15 1007.3 1007.1 0.0
23/03:00pm 34.3 35.1 21.7 47 8.6 NW 20 28 11 15 1007.8 1007.6 0.0
23/02:30pm 35.4 36.7 22.4 47 9.0 NW 19 28 10 15 1008.2 1008.0 0.0
23/02:00pm 35.4 37.1 22.4 47 9.0 NW 17 26 9 14 1008.7 1008.5 0.0
23/01:30pm 35.3 36.2 21.9 45 9.2 N 20 28 11 15 1009.0 1008.8 0.0
23/01:00pm 35.3 37.0 21.6 45 9.3 N 15 22 8 12 1009.4 1009.2 0.0
23/12:30pm 35.2 37.0 21.1 43 9.6 N 13 20 7 11 1009.9 1009.7 0.0
23/12:00pm 34.7 35.7 21.0 44 9.3 N 17 24 9 13 1010.2 1010.0 0.0
23/11:30am 34.7 36.3 21.4 46 9.0 N 15 24 8 13 1010.8 1010.6 0.0
23/11:00am 34.2 36.1 21.3 47 8.7 NW 13 20 7 11 1011.2 1011.0 0.0
23/10:30am 33.6 35.5 21.4 48 8.3 NW 13 19 7 10 1011.4 1011.2 0.0
23/10:00am 33.8 35.8 21.6 49 8.3 N 13 20 7 11 1011.4 1011.2 0.0
23/09:30am 33.3 36.4 22.1 52 7.7 N 9 13 5 7 1011.4 1011.2 0.0
23/09:00am 32.4 35.1 21.3 52 7.5 NNW 9 19 5 10 1011.2 1011.0 0.0
23/08:30am 31.8 33.8 21.6 54 6.9 NNW 13 17 7 9 1011.1 1010.9 0.0
23/08:00am 30.9 34.4 23.5 64 5.1 NW 11 15 6 8 1010.7 1010.5 0.0
23/07:30am 29.7 34.8 24.6 74 3.6 W 6 9 3 5 1010.6 1010.4 0.0
23/07:00am 28.9 35.4 25.1 80 2.7 CALM 0 0 0 0 1010.2 1010.0 0.0

Other Formats:

Comma delimited format used in spreadsheet applications
http://www.bom.gov.au/fwo/IDD60801/IDD60801.95111.axf

JavaScript Object Notation format (JSON) in row-major order
http://www.bom.gov.au/fwo/IDD60801/IDD60801.95111.json